Time;durP1;ratioP1;P1;durP2;ratioP2;P2;SDS_P1;SDS_P2;PMS_P1;PMS_P2;Temp;Humidity;BMP_temperature;BMP_pressure;BME280_temperature;BME280_humidity;BME280_pressure;Samples;Min_cycle;Max_cycle;Signal;HPM_P1;HPM_P2
2022/06/08 00:01:50;;;;;;;;;3.00;1.33;;;;;20.28;100.00;100595.38;5056733;28;45662;-80
2022/06/08 00:04:17;;;;;;;;;3.00;1.00;;;;;20.30;100.00;100597.88;5057571;28;45459;-81
2022/06/08 00:06:43;;;;;;;;;1.33;1.33;;;;;20.31;100.00;100587.56;5041072;28;45460;-82
2022/06/08 00:09:10;;;;;;;;;1.33;1.00;;;;;20.16;100.00;100552.19;5058739;28;45537;-80
2022/06/08 00:11:35;;;;;;;;;1.00;1.00;;;;;20.07;100.00;100549.13;5042126;28;48280;-81
2022/06/08 00:14:01;;;;;;;;;2.00;0.67;;;;;20.30;100.00;100581.16;5041597;28;45332;-81
2022/06/08 00:16:27;;;;;;;;;0.67;0.67;;;;;20.31;100.00;100576.41;5062118;28;45344;-85
2022/06/08 00:18:52;;;;;;;;;2.67;1.00;;;;;20.24;100.00;100571.97;5059286;28;45502;-85
2022/06/08 00:21:18;;;;;;;;;1.33;1.33;;;;;20.31;100.00;100581.97;5072125;28;48056;-81
2022/06/08 00:23:44;;;;;;;;;1.00;1.00;;;;;20.16;100.00;100558.56;5040226;28;45767;-81
2022/06/08 00:26:10;;;;;;;;;2.00;2.00;;;;;19.98;100.00;100537.69;5070366;28;45222;-81
2022/06/08 00:28:36;;;;;;;;;4.00;3.00;;;;;20.24;100.00;100582.25;5066372;28;45354;-80
2022/06/08 00:31:02;;;;;;;;;1.00;1.00;;;;;20.10;100.00;100562.47;5063208;28;45770;-78
2022/06/08 00:33:28;;;;;;;;;1.00;1.00;;;;;20.04;100.00;100555.25;5063095;28;45423;-80
2022/06/08 00:35:53;;;;;;;;;1.33;1.33;;;;;20.18;100.00;100577.78;5065350;28;45727;-81
2022/06/08 00:38:19;;;;;;;;;3.00;1.00;;;;;20.16;100.00;100575.28;5057079;28;45782;-81
2022/06/08 00:41:12;;;;;;;;;1.33;1.33;;;;;19.82;100.00;100520.16;5059766;28;47029;-81
2022/06/08 00:43:37;;;;;;;;;3.33;2.00;;;;;20.04;100.00;100558.84;5052904;28;45401;-81
2022/06/08 00:46:05;;;;;;;;;3.00;2.00;;;;;20.04;100.00;100550.50;5059302;28;45410;-81
2022/06/08 00:48:34;;;;;;;;;2.33;2.00;;;;;20.05;100.00;100552.19;5044572;28;45557;-80
2022/06/08 00:50:59;;;;;;;;;6.00;3.00;;;;;20.09;100.00;100558.88;5057153;28;45473;-81
2022/06/08 00:53:33;;;;;;;;;1.00;1.00;;;;;20.04;100.00;100550.50;5058374;28;45835;-80
2022/06/08 00:56:04;;;;;;;;;2.67;2.67;;;;;20.09;100.00;100558.03;5057234;28;45375;-85
2022/06/08 00:58:33;;;;;;;;;3.00;3.00;;;;;19.98;100.00;100534.09;5055156;28;46100;-86
2022/06/08 01:00:59;;;;;;;;;4.00;2.33;;;;;20.05;100.00;100543.81;5041039;28;46873;-83
2022/06/08 01:03:27;;;;;;;;;3.00;3.00;;;;;20.06;100.00;100547.44;5063543;28;45490;-84
2022/06/08 01:06:01;;;;;;;;;2.33;1.67;;;;;20.06;100.00;100558.56;5051729;28;45374;-82
2022/06/08 01:09:00;;;;;;;;;4.00;3.00;;;;;20.03;100.00;100545.22;5055100;28;45665;-82
2022/06/08 01:11:43;;;;;;;;;2.00;2.00;;;;;19.99;100.00;100536.59;5025230;28;45544;-80
2022/06/08 01:14:16;;;;;;;;;3.00;1.33;;;;;19.97;100.00;100543.53;5058318;28;45511;-85
2022/06/08 01:16:48;;;;;;;;;2.00;2.00;;;;;19.75;100.00;100508.44;5060898;28;45766;-84
2022/06/08 01:19:14;;;;;;;;;1.67;1.00;;;;;19.91;100.00;100524.06;5057216;28;46112;-85
2022/06/08 01:21:39;;;;;;;;;2.00;2.00;;;;;19.96;100.00;100536.31;5058250;28;46967;-84
2022/06/08 01:24:11;;;;;;;;;6.00;4.33;;;;;19.89;100.00;100533.78;5057173;28;45447;-82
2022/06/08 01:27:03;;;;;;;;;3.00;2.00;;;;;19.98;100.00;100542.44;5057453;28;45388;-81
2022/06/08 01:29:38;;;;;;;;;1.00;1.00;;;;;19.93;100.00;100524.59;5059222;28;45698;-83
2022/06/08 01:32:04;;;;;;;;;3.00;1.33;;;;;19.96;100.00;100520.44;5061472;28;45316;-86
2022/06/08 01:34:39;;;;;;;;;4.00;3.00;;;;;19.99;100.00;100530.19;5058922;28;45336;-84
2022/06/08 01:37:22;;;;;;;;;5.00;2.00;;;;;19.97;100.00;100529.63;5060822;28;45513;-84
2022/06/08 01:39:59;;;;;;;;;7.33;4.00;;;;;19.89;100.00;100514.31;5059690;28;45654;-85
2022/06/08 01:42:45;;;;;;;;;1.00;1.00;;;;;19.88;100.00;100530.19;5061619;28;46245;-84
2022/06/08 01:45:28;;;;;;;;;3.00;3.00;;;;;19.84;100.00;100540.19;5053145;28;45416;-86
2022/06/08 01:48:13;;;;;;;;;2.00;2.00;;;;;19.74;100.00;100531.78;5054652;28;45776;-82
2022/06/08 01:51:00;;;;;;;;;3.00;3.00;;;;;19.80;100.00;100554.94;5053930;28;44759;-81
2022/06/08 01:53:34;;;;;;;;;3.33;2.33;;;;;19.38;100.00;100481.66;5037690;28;46199;-81
2022/06/08 01:56:17;;;;;;;;;4.33;2.00;;;;;19.78;100.00;100535.72;5053269;28;45525;-80
2022/06/08 01:58:51;;;;;;;;;3.00;1.00;;;;;19.62;100.00;100514.53;5023616;28;45722;-80
2022/06/08 02:01:26;;;;;;;;;1.67;1.67;;;;;19.78;100.00;100532.13;5053220;28;45724;-80
2022/06/08 02:04:10;;;;;;;;;2.00;2.00;;;;;19.76;100.00;100532.38;5053401;28;46875;-81
2022/06/08 02:06:48;;;;;;;;;4.67;1.33;;;;;19.76;100.00;100526.81;5049376;28;45915;-81
2022/06/08 02:09:25;;;;;;;;;3.33;3.33;;;;;19.72;100.00;100512.59;5053681;28;45399;-79
2022/06/08 02:12:10;;;;;;;;;2.00;2.00;;;;;19.60;100.00;100488.94;5054018;28;45925;-82
2022/06/08 02:14:58;;;;;;;;;2.00;2.00;;;;;19.74;100.00;100523.44;5036921;28;45562;-79
2022/06/08 02:17:29;;;;;;;;;3.00;3.00;;;;;19.71;100.00;100524.00;5053382;28;45512;-82
2022/06/08 02:20:05;;;;;;;;;4.00;2.33;;;;;19.65;100.00;100520.34;5053858;28;45686;-81
2022/06/08 02:22:43;;;;;;;;;4.33;3.67;;;;;19.66;100.00;100526.78;5052980;28;45463;-81
2022/06/08 02:25:21;;;;;;;;;3.00;3.00;;;;;19.38;100.00;100484.44;5052905;28;45882;-80
2022/06/08 02:28:03;;;;;;;;;2.00;2.00;;;;;19.62;100.00;100532.03;5040370;28;45428;-79
2022/06/08 02:30:32;;;;;;;;;5.00;2.00;;;;;19.50;100.00;100518.38;5033765;28;45874;-81
2022/06/08 02:35:59;;;;;;;;;3.00;3.00;;;;;19.51;100.00;100525.63;5052245;28;45897;-80
2022/06/08 02:38:32;;;;;;;;;4.67;3.67;;;;;19.25;100.00;100496.06;5052345;28;45409;-79
2022/06/08 02:41:01;;;;;;;;;4.33;3.33;;;;;19.45;100.00;100537.84;5051760;28;45599;-79
2022/06/08 02:43:52;;;;;;;;;2.00;2.00;;;;;19.41;100.00;100531.16;5051918;28;45984;-80
2022/06/08 02:46:39;;;;;;;;;4.00;2.67;;;;;19.32;100.00;100524.47;5046813;28;46696;-85
2022/06/08 02:49:06;;;;;;;;;2.67;2.00;;;;;19.28;100.00;100510.28;5028750;28;45768;-85
2022/06/08 02:51:33;;;;;;;;;3.00;3.00;;;;;19.15;100.00;100500.50;5035383;28;45486;-84
2022/06/08 02:54:02;;;;;;;;;2.00;2.00;;;;;19.27;100.00;100538.34;5030801;28;46819;-80
2022/06/08 02:56:51;;;;;;;;;2.00;2.00;;;;;19.25;100.00;100538.59;5032093;28;46429;-79
2022/06/08 02:59:43;;;;;;;;;3.67;2.00;;;;;19.23;100.00;100524.13;5026967;28;45657;-80
2022/06/08 03:02:23;;;;;;;;;3.33;3.00;;;;;19.20;100.00;100521.91;5050139;28;45471;-76
2022/06/08 03:05:11;;;;;;;;;3.00;3.00;;;;;18.95;100.00;100481.81;5051503;28;45586;-80
2022/06/08 03:07:53;;;;;;;;;3.33;2.33;;;;;19.10;100.00;100508.81;5038092;28;46985;-83
2022/06/08 03:10:20;;;;;;;;;2.00;2.00;;;;;18.90;100.00;100478.97;5058938;28;45813;-79
2022/06/08 03:12:51;;;;;;;;;2.00;2.00;;;;;19.05;100.00;100501.28;5058171;28;45483;-79
2022/06/08 03:15:22;;;;;;;;;2.00;2.00;;;;;19.00;100.00;100497.66;5022183;28;45623;-78
2022/06/08 03:17:50;;;;;;;;;3.00;2.00;;;;;18.83;100.00;100470.03;5056140;28;45548;-78
2022/06/08 03:20:20;;;;;;;;;2.00;2.00;;;;;18.78;100.00;100470.84;5058808;28;45500;-83
2022/06/08 03:22:46;;;;;;;;;3.67;1.33;;;;;18.67;100.00;100444.13;5041421;28;44849;-82
2022/06/08 03:25:12;;;;;;;;;3.67;2.00;;;;;18.77;100.00;100463.63;5056953;28;45459;-77
2022/06/08 03:27:38;;;;;;;;;3.33;1.00;;;;;18.80;100.00;100471.41;5035775;28;45590;-84
2022/06/08 03:30:06;;;;;;;;;2.00;2.00;;;;;18.53;100.00;100429.88;5058444;28;45801;-82
2022/06/08 03:32:31;;;;;;;;;2.33;2.33;;;;;18.55;100.00;100436.03;5039123;28;45396;-86
2022/06/08 03:35:00;;;;;;;;;1.00;1.00;;;;;18.74;100.00;100466.91;5048646;28;45427;-85
2022/06/08 03:37:26;;;;;;;;;3.33;1.33;;;;;18.50;100.00;100425.72;5061276;28;45784;-84
2022/06/08 03:39:51;;;;;;;;;2.00;2.00;;;;;18.77;100.00;100463.63;5058426;28;45504;-80
2022/06/08 03:42:17;;;;;;;;;1.00;1.00;;;;;18.74;100.00;100460.53;5054564;28;45347;-78
2022/06/08 03:44:43;;;;;;;;;4.67;3.00;;;;;18.73;100.00;100462.50;5054786;28;45399;-78
2022/06/08 03:47:19;;;;;;;;;2.00;2.00;;;;;18.39;100.00;100420.38;5058644;28;46572;-83
2022/06/08 03:49:46;;;;;;;;;1.00;1.00;;;;;18.67;100.00;100467.19;5041099;28;45439;-84
2022/06/08 03:52:17;;;;;;;;;1.67;1.00;;;;;18.48;100.00;100447.34;5042212;28;45365;-83
2022/06/08 03:54:49;;;;;;;;;3.00;2.00;;;;;18.56;100.00;100470.16;5060271;28;45499;-83
2022/06/08 03:57:15;;;;;;;;;1.00;1.00;;;;;18.59;100.00;100480.75;5046758;28;45388;-80
2022/06/08 03:59:43;;;;;;;;;1.00;1.00;;;;;18.34;100.00;100446.19;5056501;28;45697;-79
2022/06/08 04:02:10;;;;;;;;;2.67;1.00;;;;;18.25;100.00;100437.50;5051608;28;45695;-83
2022/06/08 04:04:45;;;;;;;;;3.00;2.33;;;;;18.44;100.00;100462.03;5051668;28;45494;-81
2022/06/08 04:07:11;;;;;;;;;1.00;1.00;;;;;18.22;100.00;100431.63;5056132;28;46132;-80
2022/06/08 04:09:37;;;;;;;;;3.00;2.00;;;;;18.21;100.00;100435.53;5057073;28;45212;-83
2022/06/08 04:12:03;;;;;;;;;3.00;2.00;;;;;18.30;100.00;100458.91;5059766;28;45899;-83
2022/06/08 04:14:29;;;;;;;;;3.00;2.00;;;;;17.92;100.00;100403.44;5050584;28;46008;-83
2022/06/08 04:16:55;;;;;;;;;1.67;1.67;;;;;18.23;100.00;100449.97;5054045;28;45415;-81
2022/06/08 04:19:21;;;;;;;;;1.00;1.00;;;;;18.18;100.00;100448.84;5055518;28;45389;-83
2022/06/08 04:21:47;;;;;;;;;2.00;2.00;;;;;18.06;100.00;100442.66;5060901;28;45503;-88
2022/06/08 04:24:19;;;;;;;;;3.00;1.00;;;;;17.87;100.00;100419.16;5063361;28;45608;-89
2022/06/08 04:26:45;;;;;;;;;1.00;1.00;;;;;17.77;100.00;100404.13;5058155;28;45374;-82
2022/06/08 04:29:17;;;;;;;;;5.33;4.00;;;;;17.76;100.00;100408.00;5055253;28;45463;-79
2022/06/08 04:31:53;;;;;;;;;5.00;1.00;;;;;17.82;100.00;100436.63;5037733;28;45460;-86
2022/06/08 04:34:19;;;;;;;;;3.00;2.00;;;;;17.08;100.00;100324.50;5057897;28;45841;-80
2022/06/08 04:36:46;;;;;;;;;4.00;3.00;;;;;17.36;100.00;100375.22;5057188;28;46110;-81
2022/06/08 04:39:13;;;;;;;;;3.00;2.33;;;;;17.69;100.00;100429.56;5056942;28;45611;-82
2022/06/08 04:41:39;;;;;;;;;3.33;2.33;;;;;17.67;100.00;100420.69;5049875;28;45427;-78
2022/06/08 04:44:05;;;;;;;;;3.00;3.00;;;;;17.62;100.00;100413.16;5055931;28;45469;-84
2022/06/08 04:46:31;;;;;;;;;3.00;3.00;;;;;17.57;100.00;100403.94;5061966;28;45881;-82
2022/06/08 04:48:56;;;;;;;;;2.00;1.00;;;;;17.39;100.00;100378.28;5040757;28;45338;-78
2022/06/08 04:51:22;;;;;;;;;2.00;2.00;;;;;17.59;100.00;100402.59;5060728;28;45857;-82
2022/06/08 04:53:47;;;;;;;;;3.00;2.00;;;;;17.55;100.00;100395.91;5046367;28;44857;-85
2022/06/08 04:56:14;;;;;;;;;3.67;2.00;;;;;17.61;100.00;100396.78;5045350;28;47699;-83
2022/06/08 04:58:40;;;;;;;;;3.00;2.00;;;;;17.60;100.00;100386.78;5065410;28;45487;-84
2022/06/08 05:01:05;;;;;;;;;1.67;1.67;;;;;17.69;100.00;100392.69;5060320;28;45774;-83
2022/06/08 05:03:32;;;;;;;;;1.00;1.00;;;;;17.36;100.00;100337.22;5036045;28;47133;-80
2022/06/08 05:06:00;;;;;;;;;3.33;3.33;;;;;17.82;100.00;100406.91;5043217;28;45547;-85
2022/06/08 05:08:25;;;;;;;;;2.00;2.00;;;;;17.73;100.00;100378.00;5055997;28;44893;-85
2022/06/08 05:10:53;;;;;;;;;2.33;1.00;;;;;17.89;100.00;100398.41;5062466;28;45741;-75
2022/06/08 05:13:21;;;;;;;;;1.00;1.00;;;;;17.90;100.00;100394.53;5051947;28;45534;-77
2022/06/08 05:15:47;;;;;;;;;1.33;1.33;;;;;17.74;100.00;100359.41;5046642;28;46609;-84
2022/06/08 05:18:18;;;;;;;;;2.00;2.00;;;;;17.90;100.00;100390.91;5034817;28;45469;-86
2022/06/08 05:20:45;;;;;;;;;4.00;3.00;;;;;17.89;100.00;100389.22;5037823;28;45427;-83
2022/06/08 05:23:18;;;;;;;;;2.67;2.00;;;;;17.90;100.00;100385.38;5054181;28;45430;-83
2022/06/08 05:25:44;;;;;;;;;1.67;1.67;;;;;17.97;100.00;100397.09;5043641;28;45489;-84
2022/06/08 05:28:10;;;;;;;;;3.00;2.00;;;;;18.01;100.00;100392.69;5041441;28;46284;-83
2022/06/08 05:30:36;;;;;;;;;3.00;1.00;;;;;18.02;100.00;100377.69;5033369;28;45508;-83
2022/06/08 05:33:03;;;;;;;;;4.00;1.67;;;;;17.98;100.00;100357.97;5052559;28;45850;-82
2022/06/08 05:35:30;;;;;;;;;2.00;1.67;;;;;18.14;100.00;100386.66;5035444;28;47255;-82
2022/06/08 05:37:56;;;;;;;;;3.00;1.00;;;;;18.16;100.00;100378.88;5034682;28;45674;-83
2022/06/08 05:40:22;;;;;;;;;2.00;1.33;;;;;18.17;100.00;100376.94;5058980;28;45805;-80
2022/06/08 05:42:48;;;;;;;;;1.33;1.33;;;;;18.13;100.00;100373.88;5028678;28;47131;-82
2022/06/08 05:45:25;;;;;;;;;1.00;1.00;;;;;18.27;100.00;100374.22;5048380;28;45549;-82
2022/06/08 05:47:51;;;;;;;;;1.00;1.00;;;;;18.38;100.00;100369.53;5046391;28;45606;-83
2022/06/08 05:50:18;;;;;;;;;3.00;2.00;;;;;18.41;100.00;100370.97;5045601;28;45538;-77
2022/06/08 05:52:44;;;;;;;;;2.00;1.00;;;;;18.48;100.00;100377.09;5029146;28;45859;-85
2022/06/08 05:55:12;;;;;;;;;2.00;1.00;;;;;18.49;100.00;100376.84;5031715;28;47323;-84
2022/06/08 05:57:38;;;;;;;;;1.33;1.33;;;;;18.49;100.00;100362.94;5027024;28;45399;-78
2022/06/08 06:00:07;;;;;;;;;1.33;1.33;;;;;18.49;100.00;100371.28;5027775;28;45758;-77
2022/06/08 06:02:33;;;;;;;;;2.67;1.00;;;;;18.55;100.00;100369.38;5029549;28;46314;-77
2022/06/08 06:04:59;;;;;;;;;2.00;1.00;;;;;18.58;100.00;100367.97;5012135;28;46006;-83
2022/06/08 06:07:25;;;;;;;;;0.67;0.67;;;;;18.59;100.00;100364.09;5033395;28;45582;-82
2022/06/08 06:09:51;;;;;;;;;2.00;1.00;;;;;18.58;100.00;100371.59;5030495;28;46092;-81
2022/06/08 06:12:17;;;;;;;;;1.00;1.00;;;;;18.50;100.00;100356.28;5030233;28;45492;-86
2022/06/08 06:14:46;;;;;;;;;1.00;1.00;;;;;18.52;100.00;100359.63;5035229;28;45468;-89
2022/06/08 06:17:12;;;;;;;;;2.00;0.33;;;;;18.52;100.00;100353.25;5018166;28;45457;-86
2022/06/08 06:19:47;;;;;;;;;1.00;1.00;;;;;18.62;100.00;100380.22;5038830;28;45684;-91
2022/06/08 06:22:13;;;;;;;;;2.00;1.00;;;;;18.60;100.00;100383.25;5036532;28;45907;-82
2022/06/08 06:24:39;;;;;;;;;0.67;0.00;;;;;18.62;100.00;100381.06;5027317;28;45776;-83
2022/06/08 06:27:04;;;;;;;;;1.00;1.00;;;;;18.63;100.00;100384.66;5031117;28;45790;-84
2022/06/08 06:29:30;;;;;;;;;0.67;0.00;;;;;18.56;100.00;100370.19;5032498;28;45898;-84
2022/06/08 06:32:01;;;;;;;;;1.00;0.00;;;;;18.48;100.00;100361.25;5027782;28;45565;-83
2022/06/08 06:34:27;;;;;;;;;1.00;1.00;;;;;18.55;100.00;100379.63;5037822;28;45308;-82
2022/06/08 06:36:53;;;;;;;;;1.00;1.00;;;;;18.51;100.00;100382.94;5035071;28;45827;-86
2022/06/08 06:39:21;;;;;;;;;1.67;1.33;;;;;18.32;100.00;100346.50;5033466;28;45593;-78
2022/06/08 06:41:47;;;;;;;;;1.00;1.00;;;;;18.51;100.00;100377.38;5030275;28;45563;-74
2022/06/08 06:44:14;;;;;;;;;0.67;0.67;;;;;18.57;100.00;100394.09;5031784;28;45451;-80
2022/06/08 06:46:40;;;;;;;;;1.00;1.00;;;;;18.60;100.00;100399.09;5026473;28;46186;-77
2022/06/08 06:49:05;;;;;;;;;0.00;0.00;;;;;18.60;100.00;100397.16;5031765;28;45491;-78
2022/06/08 06:51:31;;;;;;;;;3.00;0.00;;;;;18.58;100.00;100387.41;5031089;28;46449;-82
2022/06/08 06:53:56;;;;;;;;;1.33;1.33;;;;;18.54;100.00;100378.78;5033828;28;46117;-82
2022/06/08 06:56:22;;;;;;;;;1.00;0.00;;;;;18.60;100.00;100394.38;5025935;28;45491;-78
2022/06/08 06:58:48;;;;;;;;;0.00;0.00;;;;;18.58;100.00;100396.59;5031591;28;45510;-77
2022/06/08 07:01:15;;;;;;;;;2.00;0.67;;;;;18.56;100.00;100386.84;5033010;28;45568;-77
2022/06/08 07:03:41;;;;;;;;;0.00;0.00;;;;;18.54;100.00;100384.34;5031145;28;46111;-78
2022/06/08 07:06:07;;;;;;;;;0.00;0.00;;;;;18.57;100.00;100382.97;5032023;28;45500;-78
2022/06/08 07:08:33;;;;;;;;;2.67;0.00;;;;;18.63;100.00;100390.22;5033002;28;45341;-83
2022/06/08 07:13:42;;;;;;;;;1.33;0.00;;;;;18.63;100.00;100395.78;5031581;28;45743;-83
2022/06/08 07:16:08;;;;;;;;;0.00;0.00;;;;;18.64;100.00;100395.50;5004656;28;45517;-79
2022/06/08 07:18:34;;;;;;;;;1.00;1.00;;;;;18.72;100.00;100398.88;5033443;28;45351;-80
2022/06/08 07:21:00;;;;;;;;;1.00;0.00;;;;;18.75;100.00;100399.16;5020357;28;46067;-77
2022/06/08 07:23:25;;;;;;;;;0.00;0.00;;;;;18.63;100.00;100381.88;5025382;28;46185;-77
2022/06/08 07:25:51;;;;;;;;;0.67;0.67;;;;;18.68;100.00;100388.31;5019753;28;45952;-76
2022/06/08 07:28:17;;;;;;;;;2.00;0.67;;;;;18.81;100.00;100400.84;5023101;28;45517;-77
2022/06/08 07:30:42;;;;;;;;;0.00;0.00;;;;;18.86;100.00;100402.81;5031318;28;45431;-81
2022/06/08 07:33:08;;;;;;;;;0.00;0.00;;;;;18.92;100.00;100406.47;5029472;28;45597;-79
2022/06/08 07:35:33;;;;;;;;;1.00;1.00;;;;;18.78;100.00;100375.56;5027182;28;45445;-78
2022/06/08 07:37:59;;;;;;;;;1.00;0.67;;;;;19.00;100.00;100403.16;5032593;28;45735;-84
2022/06/08 07:40:24;;;;;;;;;2.00;0.00;;;;;19.13;100.00;100410.97;5034354;28;45773;-83
2022/06/08 07:42:49;;;;;;;;;0.67;0.00;;;;;19.17;100.00;100389.00;5034921;28;45713;-86
2022/06/08 07:45:15;;;;;;;;;0.00;0.00;;;;;19.34;100.00;100385.97;5033453;28;45484;-82
2022/06/08 07:50:28;;;;;;;;;0.00;0.00;;;;;19.64;100.00;100384.31;5035673;28;45303;-83
2022/06/08 07:52:55;;;;;;;;;0.00;0.00;;;;;19.81;100.00;100392.44;5019105;28;47269;-84
2022/06/08 07:55:21;;;;;;;;;0.33;0.33;;;;;19.93;100.00;100385.44;5041949;28;45477;-82
2022/06/08 07:57:47;;;;;;;;;0.00;0.00;;;;;20.08;100.00;100386.53;5051172;28;45617;-76
2022/06/08 08:00:14;;;;;;;;;0.00;0.00;;;;;20.21;100.00;100383.16;5047939;28;45680;-76
2022/06/08 08:02:41;;;;;;;;;0.33;0.33;;;;;20.19;100.00;100357.53;5034457;28;46420;-83
2022/06/08 08:05:09;;;;;;;;;1.00;0.00;;;;;20.56;100.00;100384.16;5034997;28;45765;-83
2022/06/08 08:07:36;;;;;;;;;0.00;0.00;;;;;20.78;100.00;100366.28;5053001;28;45522;-84
2022/06/08 08:10:03;;;;;;;;;1.00;1.00;;;;;20.78;100.00;100328.06;5050402;28;45696;-83
2022/06/08 08:12:29;;;;;;;;;0.00;0.00;;;;;21.14;100.00;100354.91;5033264;28;47625;-84
2022/06/08 08:14:54;;;;;;;;;8.67;8.33;;;;;21.43;100.00;100362.50;5027519;28;45319;-83
2022/06/08 08:17:20;;;;;;;;;3.33;2.33;;;;;21.61;100.00;100364.59;5040237;28;45923;-76
2022/06/08 08:19:45;;;;;;;;;6.67;6.33;;;;;21.64;100.00;100341.66;5045817;28;45892;-79
2022/06/08 08:22:12;;;;;;;;;7.33;5.33;;;;;21.90;100.00;100351.75;5045136;28;46302;-78
2022/06/08 08:24:37;;;;;;;;;6.33;3.00;;;;;22.11;100.00;100346.78;5043615;28;45861;-78
2022/06/08 08:27:03;;;;;;;;;9.00;9.00;;;;;22.15;100.00;100317.97;5052163;28;45751;-77
2022/06/08 08:29:29;;;;;;;;;3.00;3.00;;;;;22.57;100.00;100337.88;5060435;28;45799;-80
2022/06/08 08:31:54;;;;;;;;;1.00;1.00;;;;;22.77;100.00;100316.38;5052048;28;45944;-75
2022/06/08 08:34:19;;;;;;;;;2.33;2.00;;;;;23.08;100.00;100333.53;5053937;28;45482;-76
2022/06/08 08:36:45;;;;;;;;;2.00;2.00;;;;;23.18;100.00;100324.19;5051406;28;45508;-78
2022/06/08 08:39:11;;;;;;;;;2.67;2.67;;;;;23.38;100.00;100331.41;5045364;28;45629;-79
2022/06/08 08:44:43;;;;;;;;;0.00;0.00;;;;;23.56;100.00;100338.09;5048965;28;45493;-77
2022/06/08 08:47:12;;;;;;;;;1.00;1.00;;;;;23.48;100.00;100327.63;5050260;28;45776;-77
2022/06/08 08:49:45;;;;;;;;;0.00;0.00;;;;;23.48;100.00;100339.63;5034775;28;46586;-78
2022/06/08 08:52:24;;;;;;;;;0.00;0.00;;;;;23.25;100.00;100305.88;5047137;28;47105;-76
2022/06/08 08:55:11;;;;;;;;;0.00;0.00;;;;;23.45;100.00;100354.25;5053726;28;45960;-76
2022/06/08 08:57:44;;;;;;;;;0.00;0.00;;;;;23.14;100.00;100309.97;5044695;28;45771;-78
2022/06/08 09:00:20;;;;;;;;;0.00;0.00;;;;;23.33;100.00;100331.50;5029110;28;45972;-77
2022/06/08 09:05:32;;;;;;;;;0.00;0.00;;;;;23.70;100.00;100344.59;5054196;28;45426;-84
2022/06/08 09:07:58;;;;;;;;;8.00;5.00;;;;;23.77;100.00;100350.63;5060858;28;45679;-86
2022/06/08 09:10:25;;;;;;;;;1.00;0.00;;;;;23.76;100.00;100337.75;5060476;28;45415;-84
2022/06/08 09:12:52;;;;;;;;;2.00;2.00;;;;;23.80;100.00;100340.75;5056048;28;46685;-84
2022/06/08 09:16:03;;;;;;;;;10.33;7.00;;;;;23.93;100.00;100348.38;5038626;28;45507;-83
2022/06/08 09:18:39;;;;;;;;;6.00;3.33;;;;;24.20;100.00;100362.75;5029723;28;45914;-75
2022/06/08 09:21:33;;;;;;;;;1.00;1.00;;;;;24.90;100.00;100364.38;5051959;28;45831;-76
2022/06/08 09:24:16;;;;;;;;;0.00;0.00;;;;;25.41;100.00;100342.72;5050943;28;45837;-77
2022/06/08 09:26:42;;;;;;;;;3.67;3.67;;;;;26.29;100.00;100318.78;5053389;28;45969;-83
2022/06/08 09:29:21;;;;;;;;;0.00;0.00;;;;;27.44;100.00;100315.78;5058890;28;45977;-86
2022/06/08 09:31:49;;;;;;;;;0.50;0.00;;;;;29.91;100.00;100309.09;5037419;28;47643;-81
2022/06/08 09:34:19;;;;;;;;;0.00;0.00;;;;;32.29;100.00;100321.00;5053928;28;45782;-84
2022/06/08 09:37:02;;;;;;;;;0.00;0.00;;;;;34.07;100.00;100304.50;5056250;28;45557;-83
2022/06/08 09:39:27;;;;;;;;;0.00;0.00;;;;;36.63;90.77;100301.88;5051523;28;46053;-79
2022/06/08 09:41:54;;;;;;;;;1.00;1.00;;;;;38.56;80.59;100288.50;5051210;28;45492;-76
2022/06/08 09:44:32;;;;;;;;;2.00;2.00;;;;;41.00;71.32;100309.03;5053038;28;45786;-77
2022/06/08 09:53:09;;;;;;;;;0.00;0.00;;;;;41.16;59.78;100298.97;5050623;28;45575;-77
2022/06/08 09:55:54;;;;;;;;;0.75;0.75;;;;;41.95;57.94;100304.44;5047481;28;45779;-78
2022/06/08 09:58:36;;;;;;;;;1.00;0.00;;;;;41.49;55.54;100288.69;5045127;28;45942;-77
2022/06/08 10:01:25;;;;;;;;;0.00;0.00;;;;;41.04;58.56;100268.72;5049525;28;45514;-76
2022/06/08 10:04:17;;;;;;;;;0.00;0.00;;;;;40.30;59.70;100294.97;5049421;28;45517;-82
2022/06/08 10:07:06;;;;;;;;;0.00;0.00;;;;;39.15;62.31;100291.63;5047798;28;46194;-82
2022/06/08 10:09:34;;;;;;;;;0.00;0.00;;;;;37.91;63.85;100283.59;5047131;28;45496;-80
2022/06/08 10:12:25;;;;;;;;;0.00;0.00;;;;;36.76;69.02;100294.66;5047892;28;45976;-81
2022/06/08 10:15:06;;;;;;;;;2.00;0.75;;;;;35.17;76.84;100298.03;5041297;28;45967;-81
2022/06/08 10:17:46;;;;;;;;;0.00;0.00;;;;;33.63;86.38;100282.97;5046857;28;46746;-81
2022/06/08 10:20:20;;;;;;;;;1.00;1.00;;;;;32.33;93.79;100300.03;5046049;28;45685;-77
2022/06/08 10:22:53;;;;;;;;;1.00;0.00;;;;;31.10;98.41;100283.75;5050266;28;45494;-84
2022/06/08 10:25:41;;;;;;;;;9.00;9.00;;;;;30.13;100.00;100306.16;5049309;28;45529;-85
2022/06/08 10:28:30;;;;;;;;;19.00;16.67;;;;;29.28;100.00;100314.84;5045842;28;45637;-80
2022/06/08 10:31:18;;;;;;;;;8.33;8.00;;;;;28.51;100.00;100309.44;5049243;28;46967;-80
2022/06/08 10:33:49;;;;;;;;;55.00;44.67;;;;;27.79;100.00;100310.06;5031539;28;45954;-84
2022/06/08 10:36:17;;;;;;;;;56.00;44.67;;;;;27.17;100.00;100294.41;5050348;28;45701;-85
2022/06/08 10:38:43;;;;;;;;;48.00;38.00;;;;;26.86;100.00;100317.09;5046138;28;45800;-79
2022/06/08 10:43:58;;;;;;;;;26.67;24.67;;;;;27.41;100.00;100301.53;5047653;28;46127;-85
2022/06/08 10:46:40;;;;;;;;;31.67;26.33;;;;;29.11;100.00;100298.06;5051593;28;45508;-82
2022/06/08 10:49:37;;;;;;;;;16.67;13.00;;;;;31.06;100.00;100294.97;5047081;28;46550;-76
2022/06/08 10:52:14;;;;;;;;;8.67;6.00;;;;;31.94;100.00;100310.38;5049656;28;45558;-81
2022/06/08 10:54:55;;;;;;;;;9.67;8.33;;;;;32.28;100.00;100302.38;5049571;28;45740;-83
2022/06/08 10:57:30;;;;;;;;;15.67;12.00;;;;;32.23;100.00;100305.47;5040087;28;47244;-77
2022/06/08 11:00:20;;;;;;;;;5.25;4.50;;;;;31.75;100.00;100308.25;5046410;28;46507;-76
2022/06/08 11:02:54;;;;;;;;;6.50;3.00;;;;;31.06;100.00;100294.16;5047454;28;45905;-83
2022/06/08 11:05:45;;;;;;;;;5.00;5.00;;;;;30.39;100.00;100319.94;5046619;28;45499;-84
2022/06/08 11:08:16;;;;;;;;;4.00;4.00;;;;;30.38;100.00;100318.31;5050502;28;45900;-83
2022/06/08 11:11:01;;;;;;;;;3.50;2.00;;;;;31.47;99.33;100314.78;5035616;28;47390;-81
2022/06/08 11:13:49;;;;;;;;;6.50;6.00;;;;;31.34;100.00;100291.31;5047414;28;45712;-84
2022/06/08 11:16:27;;;;;;;;;4.75;3.50;;;;;31.13;99.64;100317.84;5046629;28;45672;-79
2022/06/08 11:19:04;;;;;;;;;2.75;2.00;;;;;30.86;99.81;100310.13;5041426;28;45632;-84
2022/06/08 11:21:52;;;;;;;;;6.00;5.00;;;;;30.40;96.33;100270.66;5034127;28;48226;-81
2022/06/08 11:24:25;;;;;;;;;3.00;3.00;;;;;30.07;97.06;100282.94;5032829;28;45729;-75
2022/06/08 11:27:12;;;;;;;;;7.00;6.00;;;;;30.12;98.75;100310.97;5057177;28;45421;-84
2022/06/08 11:29:40;;;;;;;;;3.00;2.00;;;;;30.35;98.74;100314.16;5048338;28;45687;-76
2022/06/08 11:32:38;;;;;;;;;2.25;2.00;;;;;30.61;98.13;100307.34;5049970;28;46117;-76
2022/06/08 11:35:19;;;;;;;;;3.00;1.50;;;;;30.94;93.70;100297.81;5051323;28;45833;-80
2022/06/08 11:38:12;;;;;;;;;4.00;3.00;;;;;31.15;93.38;100304.16;5056298;28;45446;-75
2022/06/08 11:40:38;;;;;;;;;4.75;3.25;;;;;31.13;93.68;100314.19;5050109;28;45898;-77
2022/06/08 11:43:13;;;;;;;;;4.00;4.00;;;;;30.95;91.87;100317.28;5059316;28;45660;-84
2022/06/08 11:45:44;;;;;;;;;20.67;15.33;;;;;30.60;93.58;100325.50;5056629;28;45371;-76
2022/06/08 11:48:14;;;;;;;;;20.00;14.33;;;;;29.98;89.13;100325.44;5038187;28;45415;-82
2022/06/08 11:50:45;;;;;;;;;39.33;32.00;;;;;29.69;90.31;100306.66;5056453;28;45616;-90
2022/06/08 11:53:29;;;;;;;;;66.00;48.00;;;;;29.40;92.03;100295.16;5061587;28;47433;-83
2022/06/08 11:55:58;;;;;;;;;24.00;19.00;;;;;29.43;92.14;100318.22;5054976;28;45447;-80
2022/06/08 11:58:28;;;;;;;;;53.00;41.67;;;;;29.54;92.32;100310.97;5061054;28;45446;-77
2022/06/08 12:01:26;;;;;;;;;22.67;17.67;;;;;29.47;88.45;100297.41;5048178;28;45749;-83